sensor_id;sensor_type;location;lat;lon;timestamp;pressure;altitude;pressure_sealevel;temperature;humidity
36834;BME280;48003;52.084;5.224;2023-07-13T00:00:54;101375.0;;;20.34;66.02
36834;BME280;48003;52.084;5.224;2023-07-13T00:04:06;101375.0;;;20.6;65.16
36834;BME280;48003;52.084;5.224;2023-07-13T00:05:42;101372.0;;;20.72;64.5
36834;BME280;48003;52.084;5.224;2023-07-13T00:07:18;101375.0;;;20.53;65.09
36834;BME280;48003;52.084;5.224;2023-07-13T00:10:31;101372.0;;;20.67;64.48
36834;BME280;48003;52.084;5.224;2023-07-13T00:12:23;101376.0;;;20.59;64.63
36834;BME280;48003;52.084;5.224;2023-07-13T00:14:04;101380.0;;;20.36;65.28
36834;BME280;48003;52.084;5.224;2023-07-13T00:15:40;101378.0;;;20.66;64.33
36834;BME280;48003;52.084;5.224;2023-07-13T00:18:52;101377.0;;;20.27;65.25
36834;BME280;48003;52.084;5.224;2023-07-13T00:20:28;101372.0;;;20.27;65.44
36834;BME280;48003;52.084;5.224;2023-07-13T00:22:04;101374.0;;;20.09;65.67
36834;BME280;48003;52.084;5.224;2023-07-13T00:25:18;101375.0;;;20.02;65.81
36834;BME280;48003;52.084;5.224;2023-07-13T00:26:55;101369.0;;;20.21;64.94
36834;BME280;48003;52.084;5.224;2023-07-13T00:28:31;101373.0;;;20.21;65.08
36834;BME280;48003;52.084;5.224;2023-07-13T00:30:10;101370.0;;;19.91;65.91
36834;BME280;48003;52.084;5.224;2023-07-13T00:33:23;101376.0;;;20.22;65.05
36834;BME280;48003;52.084;5.224;2023-07-13T00:34:59;101378.0;;;20.22;65.1
36834;BME280;48003;52.084;5.224;2023-07-13T00:36:35;101377.0;;;20.57;63.75
36834;BME280;48003;52.084;5.224;2023-07-13T00:39:47;101380.0;;;19.93;65.69
36834;BME280;48003;52.084;5.224;2023-07-13T00:41:24;101380.0;;;20.09;65.41
36834;BME280;48003;52.084;5.224;2023-07-13T00:43:00;101374.0;;;20.18;64.85
36834;BME280;48003;52.084;5.224;2023-07-13T00:46:20;101380.0;;;19.38;67.36
36834;BME280;48003;52.084;5.224;2023-07-13T00:48:00;101380.0;;;19.95;65.83
36834;BME280;48003;52.084;5.224;2023-07-13T00:49:36;101377.0;;;20.05;65.59
36834;BME280;48003;52.084;5.224;2023-07-13T00:51:13;101381.0;;;19.8;66.23
36834;BME280;48003;52.084;5.224;2023-07-13T00:54:34;101367.0;;;19.93;65.73
36834;BME280;48003;52.084;5.224;2023-07-13T00:56:16;101367.0;;;19.54;67.31
36834;BME280;48003;52.084;5.224;2023-07-13T00:57:51;101371.0;;;19.79;66.77
36834;BME280;48003;52.084;5.224;2023-07-13T00:59:28;101369.0;;;19.98;66.16
36834;BME280;48003;52.084;5.224;2023-07-13T01:02:42;101374.0;;;19.91;66.31
36834;BME280;48003;52.084;5.224;2023-07-13T01:04:23;101376.0;;;20.18;65.44
36834;BME280;48003;52.084;5.224;2023-07-13T01:06:00;101383.0;;;19.75;66.56
36834;BME280;48003;52.084;5.224;2023-07-13T01:09:14;101381.0;;;19.57;67.39
36834;BME280;48003;52.084;5.224;2023-07-13T01:10:52;101385.0;;;19.45;68.14
36834;BME280;48003;52.084;5.224;2023-07-13T01:12:29;101385.0;;;20.02;66.34
36834;BME280;48003;52.084;5.224;2023-07-13T01:14:05;101391.0;;;19.43;68.08
36834;BME280;48003;52.084;5.224;2023-07-13T01:17:20;101395.0;;;19.84;66.98
36834;BME280;48003;52.084;5.224;2023-07-13T01:18:57;101382.0;;;19.23;69.05
36834;BME280;48003;52.084;5.224;2023-07-13T01:20:34;101389.0;;;19.38;68.74
36834;BME280;48003;52.084;5.224;2023-07-13T01:23:51;101394.0;;;19.23;69.45
36834;BME280;48003;52.084;5.224;2023-07-13T01:25:28;101389.0;;;19.56;68.28
36834;BME280;48003;52.084;5.224;2023-07-13T01:27:06;101388.0;;;19.29;69.27
36834;BME280;48003;52.084;5.224;2023-07-13T01:28:42;101393.0;;;19.61;68.45
36834;BME280;48003;52.084;5.224;2023-07-13T01:31:55;101394.0;;;19.55;68.8
36834;BME280;48003;52.084;5.224;2023-07-13T01:33:31;101392.0;;;19.3;69.72
36834;BME280;48003;52.084;5.224;2023-07-13T01:35:08;101384.0;;;19.25;70.17
36834;BME280;48003;52.084;5.224;2023-07-13T01:38:22;101391.0;;;19.16;70.58
36834;BME280;48003;52.084;5.224;2023-07-13T01:39:59;101387.0;;;19.06;70.88
36834;BME280;48003;52.084;5.224;2023-07-13T01:41:35;101388.0;;;19.3;70.33
36834;BME280;48003;52.084;5.224;2023-07-13T01:44:48;101389.0;;;19.75;68.81
36834;BME280;48003;52.084;5.224;2023-07-13T01:46:24;101386.0;;;19.84;68.55
36834;BME280;48003;52.084;5.224;2023-07-13T01:48:00;101390.0;;;19.95;68.19
36834;BME280;48003;52.084;5.224;2023-07-13T01:49:37;101392.0;;;19.31;70.42
36834;BME280;48003;52.084;5.224;2023-07-13T01:52:49;101396.0;;;19.68;69.44
36834;BME280;48003;52.084;5.224;2023-07-13T01:54:25;101400.0;;;19.28;70.75
36834;BME280;48003;52.084;5.224;2023-07-13T01:56:01;101401.0;;;19.06;71.69
36834;BME280;48003;52.084;5.224;2023-07-13T01:59:13;101397.0;;;19.14;71.33
36834;BME280;48003;52.084;5.224;2023-07-13T02:00:51;101398.0;;;19.02;71.94
36834;BME280;48003;52.084;5.224;2023-07-13T02:02:28;101395.0;;;19.53;70.19
36834;BME280;48003;52.084;5.224;2023-07-13T02:05:40;101397.0;;;19.16;71.7
36834;BME280;48003;52.084;5.224;2023-07-13T02:07:16;101396.0;;;19.43;70.94
36834;BME280;48003;52.084;5.224;2023-07-13T02:08:53;101396.0;;;19.63;70.0
36834;BME280;48003;52.084;5.224;2023-07-13T02:10:29;101401.0;;;19.2;71.78
36834;BME280;48003;52.084;5.224;2023-07-13T02:13:43;101405.0;;;19.22;71.81
36834;BME280;48003;52.084;5.224;2023-07-13T02:15:19;101407.0;;;19.16;72.08
36834;BME280;48003;52.084;5.224;2023-07-13T02:16:55;101405.0;;;19.02;72.55
36834;BME280;48003;52.084;5.224;2023-07-13T02:20:08;101409.0;;;19.14;72.34
36834;BME280;48003;52.084;5.224;2023-07-13T02:21:44;101403.0;;;19.06;72.91
36834;BME280;48003;52.084;5.224;2023-07-13T02:23:20;101405.0;;;19.3;71.91
36834;BME280;48003;52.084;5.224;2023-07-13T02:26:33;101412.0;;;19.45;71.69
36834;BME280;48003;52.084;5.224;2023-07-13T02:28:10;101403.0;;;19.37;71.67
36834;BME280;48003;52.084;5.224;2023-07-13T02:29:46;101410.0;;;19.41;72.24
36834;BME280;48003;52.084;5.224;2023-07-13T02:31:22;101407.0;;;19.22;72.77
36834;BME280;48003;52.084;5.224;2023-07-13T02:34:34;101409.0;;;19.14;73.94
36834;BME280;48003;52.084;5.224;2023-07-13T02:36:11;101406.0;;;18.84;75.19
36834;BME280;48003;52.084;5.224;2023-07-13T02:37:49;101407.0;;;19.07;74.31
36834;BME280;48003;52.084;5.224;2023-07-13T02:41:01;101407.0;;;19.18;73.97
36834;BME280;48003;52.084;5.224;2023-07-13T02:42:37;101413.0;;;19.39;73.27
36834;BME280;48003;52.084;5.224;2023-07-13T02:44:14;101410.0;;;19.29;73.86
36834;BME280;48003;52.084;5.224;2023-07-13T02:47:26;101415.0;;;18.86;75.61
36834;BME280;48003;52.084;5.224;2023-07-13T02:49:03;101412.0;;;19.22;74.59
36834;BME280;48003;52.084;5.224;2023-07-13T02:50:40;101406.0;;;18.84;75.75
36834;BME280;48003;52.084;5.224;2023-07-13T02:53:52;101406.0;;;19.38;73.77
36834;BME280;48003;52.084;5.224;2023-07-13T02:55:28;101408.0;;;19.02;74.97
36834;BME280;48003;52.084;5.224;2023-07-13T02:57:05;101410.0;;;19.09;75.27
36834;BME280;48003;52.084;5.224;2023-07-13T02:58:41;101413.0;;;19.21;74.61
36834;BME280;48003;52.084;5.224;2023-07-13T03:01:54;101410.0;;;19.31;74.08
36834;BME280;48003;52.084;5.224;2023-07-13T03:03:30;101411.0;;;19.45;73.59
36834;BME280;48003;52.084;5.224;2023-07-13T03:05:07;101412.0;;;19.25;74.23
36834;BME280;48003;52.084;5.224;2023-07-13T03:08:19;101410.0;;;19.41;73.56
36834;BME280;48003;52.084;5.224;2023-07-13T03:09:56;101417.0;;;19.18;74.14
36834;BME280;48003;52.084;5.224;2023-07-13T03:11:33;101411.0;;;19.34;73.74
36834;BME280;48003;52.084;5.224;2023-07-13T03:14:45;101417.0;;;19.27;74.0
36834;BME280;48003;52.084;5.224;2023-07-13T03:16:21;101416.0;;;19.34;73.27
36834;BME280;48003;52.084;5.224;2023-07-13T03:17:58;101417.0;;;19.37;73.41
36834;BME280;48003;52.084;5.224;2023-07-13T03:19:34;101415.0;;;18.98;74.94
36834;BME280;48003;52.084;5.224;2023-07-13T03:22:47;101417.0;;;19.27;73.73
36834;BME280;48003;52.084;5.224;2023-07-13T03:24:23;101417.0;;;19.43;73.12
36834;BME280;48003;52.084;5.224;2023-07-13T03:26:04;101418.0;;;18.91;75.22
36834;BME280;48003;52.084;5.224;2023-07-13T03:29:17;101419.0;;;19.36;73.58
36834;BME280;48003;52.084;5.224;2023-07-13T03:30:59;101422.0;;;19.18;74.44
36834;BME280;48003;52.084;5.224;2023-07-13T03:32:35;101424.0;;;19.18;74.55
36834;BME280;48003;52.084;5.224;2023-07-13T03:34:12;101431.0;;;19.2;74.52
36834;BME280;48003;52.084;5.224;2023-07-13T03:37:24;101427.0;;;19.16;74.74
36834;BME280;48003;52.084;5.224;2023-07-13T03:39:02;101435.0;;;18.68;76.8
36834;BME280;48003;52.084;5.224;2023-07-13T03:40:38;101432.0;;;18.97;75.75
36834;BME280;48003;52.084;5.224;2023-07-13T03:43:51;101439.0;;;18.59;77.45
36834;BME280;48003;52.084;5.224;2023-07-13T03:45:27;101435.0;;;18.86;76.83
36834;BME280;48003;52.084;5.224;2023-07-13T03:47:04;101436.0;;;18.93;76.62
36834;BME280;48003;52.084;5.224;2023-07-13T03:50:16;101435.0;;;19.07;75.97
36834;BME280;48003;52.084;5.224;2023-07-13T03:51:52;101434.0;;;18.97;76.33
36834;BME280;48003;52.084;5.224;2023-07-13T03:53:29;101442.0;;;18.89;76.61
36834;BME280;48003;52.084;5.224;2023-07-13T03:55:05;101440.0;;;18.75;77.61
36834;BME280;48003;52.084;5.224;2023-07-13T03:58:35;101443.0;;;18.93;77.27
36834;BME280;48003;52.084;5.224;2023-07-13T04:00:13;101444.0;;;19.13;76.31
36834;BME280;48003;52.084;5.224;2023-07-13T04:01:50;101448.0;;;19.32;75.5
36834;BME280;48003;52.084;5.224;2023-07-13T04:03:26;101451.0;;;19.41;74.87
36834;BME280;48003;52.084;5.224;2023-07-13T04:06:40;101451.0;;;19.52;74.41
36834;BME280;48003;52.084;5.224;2023-07-13T04:08:16;101450.0;;;19.5;74.28
36834;BME280;48003;52.084;5.224;2023-07-13T04:09:52;101457.0;;;19.5;74.33
36834;BME280;48003;52.084;5.224;2023-07-13T04:13:08;101458.0;;;19.28;75.19
36834;BME280;48003;52.084;5.224;2023-07-13T04:14:44;101452.0;;;19.45;74.61
36834;BME280;48003;52.084;5.224;2023-07-13T04:16:20;101459.0;;;19.5;74.52
36834;BME280;48003;52.084;5.224;2023-07-13T04:19:34;101459.0;;;19.45;74.69
36834;BME280;48003;52.084;5.224;2023-07-13T04:21:11;101464.0;;;19.28;75.52
36834;BME280;48003;52.084;5.224;2023-07-13T04:22:48;101464.0;;;19.32;75.22
36834;BME280;48003;52.084;5.224;2023-07-13T04:24:24;101466.0;;;19.3;75.3
36834;BME280;48003;52.084;5.224;2023-07-13T04:27:36;101466.0;;;19.48;74.55
36834;BME280;48003;52.084;5.224;2023-07-13T04:29:12;101471.0;;;19.53;74.3
36834;BME280;48003;52.084;5.224;2023-07-13T04:30:49;101469.0;;;19.38;74.77
36834;BME280;48003;52.084;5.224;2023-07-13T04:34:02;101476.0;;;19.27;75.33
36834;BME280;48003;52.084;5.224;2023-07-13T04:35:38;101473.0;;;19.3;75.5
36834;BME280;48003;52.084;5.224;2023-07-13T04:37:15;101476.0;;;19.5;74.67
36834;BME280;48003;52.084;5.224;2023-07-13T04:40:27;101480.0;;;19.41;75.11
36834;BME280;48003;52.084;5.224;2023-07-13T04:42:05;101480.0;;;19.43;74.8
36834;BME280;48003;52.084;5.224;2023-07-13T04:43:41;101480.0;;;19.37;75.22
36834;BME280;48003;52.084;5.224;2023-07-13T04:45:18;101474.0;;;19.48;74.74
36834;BME280;48003;52.084;5.224;2023-07-13T04:48:30;101475.0;;;19.38;75.09
36834;BME280;48003;52.084;5.224;2023-07-13T04:50:07;101478.0;;;19.46;74.8
36834;BME280;48003;52.084;5.224;2023-07-13T04:51:44;101475.0;;;19.03;76.08
36834;BME280;48003;52.084;5.224;2023-07-13T04:54:56;101481.0;;;19.18;76.27
36834;BME280;48003;52.084;5.224;2023-07-13T04:56:33;101484.0;;;19.28;75.87
36834;BME280;48003;52.084;5.224;2023-07-13T04:58:09;101483.0;;;19.27;76.25
36834;BME280;48003;52.084;5.224;2023-07-13T05:01:21;101482.0;;;19.39;76.0
36834;BME280;48003;52.084;5.224;2023-07-13T05:02:58;101484.0;;;19.31;76.3
36834;BME280;48003;52.084;5.224;2023-07-13T05:04:34;101480.0;;;19.34;75.83
36834;BME280;48003;52.084;5.224;2023-07-13T05:06:10;101488.0;;;19.02;77.37
36834;BME280;48003;52.084;5.224;2023-07-13T05:09:23;101489.0;;;19.41;76.06
36834;BME280;48003;52.084;5.224;2023-07-13T05:10:59;101494.0;;;18.88;78.41
36834;BME280;48003;52.084;5.224;2023-07-13T05:12:36;101498.0;;;18.93;78.47
36834;BME280;48003;52.084;5.224;2023-07-13T05:15:55;101491.0;;;19.46;76.2
36834;BME280;48003;52.084;5.224;2023-07-13T05:17:32;101492.0;;;19.54;75.87
36834;BME280;48003;52.084;5.224;2023-07-13T05:19:10;101490.0;;;19.36;76.44
36834;BME280;48003;52.084;5.224;2023-07-13T05:22:23;101494.0;;;19.3;76.91
36834;BME280;48003;52.084;5.224;2023-07-13T05:23:59;101492.0;;;19.27;77.78
36834;BME280;48003;52.084;5.224;2023-07-13T05:25:35;101494.0;;;19.27;77.69
36834;BME280;48003;52.084;5.224;2023-07-13T05:27:11;101497.0;;;19.3;77.89
36834;BME280;48003;52.084;5.224;2023-07-13T05:30:24;101503.0;;;19.31;77.63
36834;BME280;48003;52.084;5.224;2023-07-13T05:32:00;101501.0;;;19.39;77.75
36834;BME280;48003;52.084;5.224;2023-07-13T05:33:36;101507.0;;;19.14;78.99
36834;BME280;48003;52.084;5.224;2023-07-13T05:36:48;101512.0;;;18.93;79.48
36834;BME280;48003;52.084;5.224;2023-07-13T05:38:25;101514.0;;;19.07;79.69
36834;BME280;48003;52.084;5.224;2023-07-13T05:40:01;101509.0;;;19.43;78.08
36834;BME280;48003;52.084;5.224;2023-07-13T05:43:14;101507.0;;;19.32;78.7
36834;BME280;48003;52.084;5.224;2023-07-13T05:44:51;101513.0;;;18.87;80.74
36834;BME280;48003;52.084;5.224;2023-07-13T05:46:28;101515.0;;;18.84;81.81
36834;BME280;48003;52.084;5.224;2023-07-13T05:48:04;101507.0;;;19.16;79.99
36834;BME280;48003;52.084;5.224;2023-07-13T05:51:16;101513.0;;;18.93;81.24
36834;BME280;48003;52.084;5.224;2023-07-13T05:52:53;101523.0;;;18.97;81.28
36834;BME280;48003;52.084;5.224;2023-07-13T05:54:29;101521.0;;;19.12;80.42
36834;BME280;48003;52.084;5.224;2023-07-13T05:57:41;101520.0;;;19.14;80.24
36834;BME280;48003;52.084;5.224;2023-07-13T05:59:17;101528.0;;;18.95;81.63
36834;BME280;48003;52.084;5.224;2023-07-13T06:01:00;101537.0;;;18.86;82.7
36834;BME280;48003;52.084;5.224;2023-07-13T06:04:12;101535.0;;;19.06;81.77
36834;BME280;48003;52.084;5.224;2023-07-13T06:05:49;101544.0;;;19.2;81.47
36834;BME280;48003;52.084;5.224;2023-07-13T06:07:25;101541.0;;;18.77;83.42
36834;BME280;48003;52.084;5.224;2023-07-13T06:09:02;101538.0;;;18.87;83.18
36834;BME280;48003;52.084;5.224;2023-07-13T06:12:14;101543.0;;;19.16;82.12
36834;BME280;48003;52.084;5.224;2023-07-13T06:13:51;101543.0;;;19.34;80.97
36834;BME280;48003;52.084;5.224;2023-07-13T06:15:27;101544.0;;;19.41;80.91
36834;BME280;48003;52.084;5.224;2023-07-13T06:18:41;101553.0;;;19.22;81.86
36834;BME280;48003;52.084;5.224;2023-07-13T06:20:18;101548.0;;;19.45;80.94
36834;BME280;48003;52.084;5.224;2023-07-13T06:21:54;101558.0;;;19.27;82.03
36834;BME280;48003;52.084;5.224;2023-07-13T06:25:07;101556.0;;;19.66;80.72
36834;BME280;48003;52.084;5.224;2023-07-13T06:26:43;101556.0;;;19.86;79.23
36834;BME280;48003;52.084;5.224;2023-07-13T06:28:19;101570.0;;;19.37;80.66
36834;BME280;48003;52.084;5.224;2023-07-13T06:29:55;101558.0;;;19.5;80.37
36834;BME280;48003;52.084;5.224;2023-07-13T06:33:07;101558.0;;;19.57;79.95
36834;BME280;48003;52.084;5.224;2023-07-13T06:34:43;101565.0;;;20.02;78.33
36834;BME280;48003;52.084;5.224;2023-07-13T06:36:19;101566.0;;;19.61;79.55
36834;BME280;48003;52.084;5.224;2023-07-13T06:39:32;101560.0;;;19.77;79.19
36834;BME280;48003;52.084;5.224;2023-07-13T06:41:09;101561.0;;;19.82;78.55
36834;BME280;48003;52.084;5.224;2023-07-13T06:42:45;101557.0;;;19.91;78.45
36834;BME280;48003;52.084;5.224;2023-07-13T06:45:58;101560.0;;;19.82;78.64
36834;BME280;48003;52.084;5.224;2023-07-13T06:47:34;101561.0;;;20.05;78.23
36834;BME280;48003;52.084;5.224;2023-07-13T06:49:10;101560.0;;;20.12;77.74
36834;BME280;48003;52.084;5.224;2023-07-13T06:50:48;101570.0;;;19.75;78.86
36834;BME280;48003;52.084;5.224;2023-07-13T06:54:01;101565.0;;;19.82;79.41
36834;BME280;48003;52.084;5.224;2023-07-13T06:55:37;101572.0;;;20.09;78.22
36834;BME280;48003;52.084;5.224;2023-07-13T06:57:14;101572.0;;;19.84;79.33
36834;BME280;48003;52.084;5.224;2023-07-13T07:00:27;101575.0;;;19.89;79.7
36834;BME280;48003;52.084;5.224;2023-07-13T07:02:03;101584.0;;;19.97;79.72
36834;BME280;48003;52.084;5.224;2023-07-13T07:03:40;101580.0;;;19.95;80.02
36834;BME280;48003;52.084;5.224;2023-07-13T07:06:52;101591.0;;;19.82;80.19
36834;BME280;48003;52.084;5.224;2023-07-13T07:08:28;101584.0;;;20.0;80.11
36834;BME280;48003;52.084;5.224;2023-07-13T07:10:05;101594.0;;;19.72;81.06
36834;BME280;48003;52.084;5.224;2023-07-13T07:11:42;101594.0;;;19.88;81.56
36834;BME280;48003;52.084;5.224;2023-07-13T07:14:55;101593.0;;;19.66;83.18
36834;BME280;48003;52.084;5.224;2023-07-13T07:16:31;101592.0;;;19.68;84.19
36834;BME280;48003;52.084;5.224;2023-07-13T07:18:07;101592.0;;;19.89;84.52
36834;BME280;48003;52.084;5.224;2023-07-13T07:21:19;101596.0;;;20.07;83.93
36834;BME280;48003;52.084;5.224;2023-07-13T07:22:55;101599.0;;;19.7;85.15
36834;BME280;48003;52.084;5.224;2023-07-13T07:24:32;101601.0;;;19.68;85.16
36834;BME280;48003;52.084;5.224;2023-07-13T07:27:44;101596.0;;;20.25;83.73
36834;BME280;48003;52.084;5.224;2023-07-13T07:29:21;101597.0;;;20.22;83.43
36834;BME280;48003;52.084;5.224;2023-07-13T07:30:58;101600.0;;;19.93;84.78
36834;BME280;48003;52.084;5.224;2023-07-13T07:34:10;101600.0;;;20.45;83.5
36834;BME280;48003;52.084;5.224;2023-07-13T07:35:46;101601.0;;;20.63;82.73
36834;BME280;48003;52.084;5.224;2023-07-13T07:37:23;101594.0;;;20.21;84.1
36834;BME280;48003;52.084;5.224;2023-07-13T07:42:13;101585.0;;;20.05;84.13
36834;BME280;48003;52.084;5.224;2023-07-13T07:43:49;101581.0;;;20.32;83.3
36834;BME280;48003;52.084;5.224;2023-07-13T07:45:26;101582.0;;;20.29;83.03
36834;BME280;48003;52.084;5.224;2023-07-13T07:48:40;101587.0;;;20.11;83.67
36834;BME280;48003;52.084;5.224;2023-07-13T07:50:16;101580.0;;;20.07;82.61
36834;BME280;48003;52.084;5.224;2023-07-13T07:51:52;101590.0;;;20.36;83.92
36834;BME280;48003;52.084;5.224;2023-07-13T07:55:06;101594.0;;;20.36;82.21
36834;BME280;48003;52.084;5.224;2023-07-13T07:56:44;101593.0;;;20.25;81.34
36834;BME280;48003;52.084;5.224;2023-07-13T07:58:20;101591.0;;;19.91;82.45
36834;BME280;48003;52.084;5.224;2023-07-13T07:59:56;101598.0;;;20.12;82.58
36834;BME280;48003;52.084;5.224;2023-07-13T08:03:09;101597.0;;;19.95;83.02
36834;BME280;48003;52.084;5.224;2023-07-13T08:04:46;101607.0;;;19.78;84.42
36834;BME280;48003;52.084;5.224;2023-07-13T08:06:22;101606.0;;;20.11;82.26
36834;BME280;48003;52.084;5.224;2023-07-13T08:09:36;101589.0;;;20.03;82.8
36834;BME280;48003;52.084;5.224;2023-07-13T08:11:12;101588.0;;;20.25;81.2
36834;BME280;48003;52.084;5.224;2023-07-13T08:12:49;101585.0;;;20.18;81.2
36834;BME280;48003;52.084;5.224;2023-07-13T08:16:03;101585.0;;;20.14;81.91
36834;BME280;48003;52.084;5.224;2023-07-13T08:17:40;101591.0;;;20.12;80.41
36834;BME280;48003;52.084;5.224;2023-07-13T08:19:17;101595.0;;;20.34;80.81
36834;BME280;48003;52.084;5.224;2023-07-13T08:20:53;101589.0;;;20.32;81.22
36834;BME280;48003;52.084;5.224;2023-07-13T08:24:07;101597.0;;;20.36;78.48
36834;BME280;48003;52.084;5.224;2023-07-13T08:25:50;101607.0;;;20.59;75.73
36834;BME280;48003;52.084;5.224;2023-07-13T08:27:28;101607.0;;;20.38;72.38
36834;BME280;48003;52.084;5.224;2023-07-13T08:30:40;101614.0;;;20.2;68.41
36834;BME280;48003;52.084;5.224;2023-07-13T08:32:19;101610.0;;;20.41;65.33
36834;BME280;48003;52.084;5.224;2023-07-13T08:33:55;101608.0;;;20.18;67.3
36834;BME280;48003;52.084;5.224;2023-07-13T08:35:32;101609.0;;;20.31;66.89
36834;BME280;48003;52.084;5.224;2023-07-13T08:38:45;101612.0;;;20.18;69.98
36834;BME280;48003;52.084;5.224;2023-07-13T08:40:24;101630.0;;;19.73;72.86
36834;BME280;48003;52.084;5.224;2023-07-13T08:42:04;101630.0;;;19.71;72.69
36834;BME280;48003;52.084;5.224;2023-07-13T08:43:52;101620.0;;;19.66;72.95
36834;BME280;48003;52.084;5.224;2023-07-13T08:47:21;101632.0;;;19.7;73.73
36834;BME280;48003;52.084;5.224;2023-07-13T08:49:04;101622.0;;;19.82;73.61
36834;BME280;48003;52.084;5.224;2023-07-13T08:50:48;101622.0;;;19.77;74.22
36834;BME280;48003;52.084;5.224;2023-07-13T08:52:37;101621.0;;;19.95;74.12
36834;BME280;48003;52.084;5.224;2023-07-13T08:54:20;101624.0;;;19.68;75.5
36834;BME280;48003;52.084;5.224;2023-07-13T08:57:38;101625.0;;;19.61;76.16
36834;BME280;48003;52.084;5.224;2023-07-13T08:59:19;101617.0;;;19.93;75.8
36834;BME280;48003;52.084;5.224;2023-07-13T09:01:02;101623.0;;;20.28;74.72
36834;BME280;48003;52.084;5.224;2023-07-13T09:02:48;101618.0;;;20.05;75.27
36834;BME280;48003;52.084;5.224;2023-07-13T09:06:12;101615.0;;;20.13;75.08
36834;BME280;48003;52.084;5.224;2023-07-13T09:08:01;101616.0;;;20.09;75.91
36834;BME280;48003;52.084;5.224;2023-07-13T09:10:00;101614.0;;;20.41;73.25
36834;BME280;48003;52.084;5.224;2023-07-13T09:11:50;101620.0;;;20.62;72.36
36834;BME280;48003;52.084;5.224;2023-07-13T09:13:36;101622.0;;;20.16;74.08
36834;BME280;48003;52.084;5.224;2023-07-13T09:15:26;101626.0;;;20.38;74.16
36834;BME280;48003;52.084;5.224;2023-07-13T09:18:50;101623.0;;;20.55;72.69
36834;BME280;48003;52.084;5.224;2023-07-13T09:20:31;101623.0;;;20.5;73.52
36834;BME280;48003;52.084;5.224;2023-07-13T09:22:17;101613.0;;;20.32;73.52
36834;BME280;48003;52.084;5.224;2023-07-13T09:24:00;101614.0;;;20.58;74.02
36834;BME280;48003;52.084;5.224;2023-07-13T09:26:02;101611.0;;;20.74;73.19
36834;BME280;48003;52.084;5.224;2023-07-13T09:27:43;101625.0;;;20.74;72.25
36834;BME280;48003;52.084;5.224;2023-07-13T09:31:07;101634.0;;;20.79;69.94
36834;BME280;48003;52.084;5.224;2023-07-13T09:32:51;101632.0;;;21.12;69.97
36834;BME280;48003;52.084;5.224;2023-07-13T09:34:29;101635.0;;;21.14;68.52
36834;BME280;48003;52.084;5.224;2023-07-13T09:36:20;101627.0;;;20.97;69.02
36834;BME280;48003;52.084;5.224;2023-07-13T09:39:46;101634.0;;;20.7;70.02
36834;BME280;48003;52.084;5.224;2023-07-13T09:41:29;101635.0;;;20.82;71.83
36834;BME280;48003;52.084;5.224;2023-07-13T09:43:11;101636.0;;;21.09;71.16
36834;BME280;48003;52.084;5.224;2023-07-13T09:44:53;101642.0;;;21.15;69.5
36834;BME280;48003;52.084;5.224;2023-07-13T09:46:30;101640.0;;;21.08;70.8
36834;BME280;48003;52.084;5.224;2023-07-13T09:49:54;101646.0;;;21.18;69.86
36834;BME280;48003;52.084;5.224;2023-07-13T09:51:31;101642.0;;;21.2;70.33
36834;BME280;48003;52.084;5.224;2023-07-13T09:53:12;101640.0;;;21.27;70.89
36834;BME280;48003;52.084;5.224;2023-07-13T09:56:29;101644.0;;;20.59;73.59
36834;BME280;48003;52.084;5.224;2023-07-13T09:58:10;101646.0;;;20.9;72.86
36834;BME280;48003;52.084;5.224;2023-07-13T09:59:51;101649.0;;;20.56;73.64
36834;BME280;48003;52.084;5.224;2023-07-13T10:01:33;101650.0;;;20.95;73.48
36834;BME280;48003;52.084;5.224;2023-07-13T10:04:57;101655.0;;;20.99;72.33
36834;BME280;48003;52.084;5.224;2023-07-13T10:06:34;101652.0;;;20.61;73.45
36834;BME280;48003;52.084;5.224;2023-07-13T10:08:21;101653.0;;;21.03;71.47
36834;BME280;48003;52.084;5.224;2023-07-13T10:10:00;101656.0;;;20.96;72.36
36834;BME280;48003;52.084;5.224;2023-07-13T10:11:39;101655.0;;;21.26;69.41
36834;BME280;48003;52.084;5.224;2023-07-13T10:15:16;101653.0;;;21.21;71.91
36834;BME280;48003;52.084;5.224;2023-07-13T10:17:00;101655.0;;;21.32;71.5
36834;BME280;48003;52.084;5.224;2023-07-13T10:18:42;101652.0;;;21.59;70.5
36834;BME280;48003;52.084;5.224;2023-07-13T10:20:21;101656.0;;;21.7;69.84
36834;BME280;48003;52.084;5.224;2023-07-13T10:23:38;101665.0;;;21.36;67.8
36834;BME280;48003;52.084;5.224;2023-07-13T10:25:16;101655.0;;;21.64;68.75
36834;BME280;48003;52.084;5.224;2023-07-13T10:26:58;101667.0;;;21.08;70.25
36834;BME280;48003;52.084;5.224;2023-07-13T10:28:52;101666.0;;;21.26;69.05
36834;BME280;48003;52.084;5.224;2023-07-13T10:30:33;101674.0;;;21.13;69.98
36834;BME280;48003;52.084;5.224;2023-07-13T10:33:51;101675.0;;;21.32;66.2
36834;BME280;48003;52.084;5.224;2023-07-13T10:35:29;101678.0;;;21.15;65.63
36834;BME280;48003;52.084;5.224;2023-07-13T10:37:07;101680.0;;;21.3;67.23
36834;BME280;48003;52.084;5.224;2023-07-13T10:38:52;101675.0;;;21.59;67.48
36834;BME280;48003;52.084;5.224;2023-07-13T10:42:25;101670.0;;;21.71;68.2
36834;BME280;48003;52.084;5.224;2023-07-13T10:44:17;101668.0;;;21.82;61.72
36834;BME280;48003;52.084;5.224;2023-07-13T10:45:56;101670.0;;;21.81;61.51
36834;BME280;48003;52.084;5.224;2023-07-13T10:47:33;101669.0;;;21.89;61.23
36834;BME280;48003;52.084;5.224;2023-07-13T10:50:50;101674.0;;;21.71;62.34
36834;BME280;48003;52.084;5.224;2023-07-13T10:52:46;101681.0;;;21.87;62.5
36834;BME280;48003;52.084;5.224;2023-07-13T10:54:27;101680.0;;;21.87;62.35
36834;BME280;48003;52.084;5.224;2023-07-13T10:56:15;101675.0;;;21.98;61.44
36834;BME280;48003;52.084;5.224;2023-07-13T10:58:00;101672.0;;;22.23;62.31
36834;BME280;48003;52.084;5.224;2023-07-13T11:01:15;101674.0;;;22.08;61.99
36834;BME280;48003;52.084;5.224;2023-07-13T11:02:57;101670.0;;;22.28;61.27
36834;BME280;48003;52.084;5.224;2023-07-13T11:04:41;101673.0;;;22.31;62.39
36834;BME280;48003;52.084;5.224;2023-07-13T11:06:33;101667.0;;;22.22;62.88
36834;BME280;48003;52.084;5.224;2023-07-13T11:08:16;101670.0;;;22.39;61.2